»·PEaware :: UPS578 KSFO-KSLC

UPS578 :: KSFO-KSLC

FLIGHT INFORMATION

Flight Status: Arrived
Operator:
United Parcel Service
More flights by this operator :: More flights under this callsign
Pilot: Jose A. (17505)
Aircraft: BOEING 747-400 (WINGLETS)
(B744)
More flights by this aircraft type
Origin: KSFO San Francisco Intl
United States
Destination: KSLC Salt Lake City Intl
United States
More flights between these airports :: More routes between these airports
Route: +TRUKN2 MOGEE Q122 MCORD Q124 BVL BVL2
File this flight plan on PilotEdge
Remarks: SEL / FSKR PBN / A1B1C1D1L1O1S1 NAV / RNVD1E2A1 DOF / 180106 REG / N578UP EET / KZLC0033 RVR / 75 PER / E OPR / UNITED PARCEL SERVICE
Altitude:
(Current/Filed)
410ft
Speed:
(Current/Filed)
489kts
Departed: 06-Jan-18 11:52 AM
Arrived: 06-Jan-18 01:09 PM
Distance/Time
Traveled:
519nm/1:17
Distance/Time
To Go:
Arrived

Flight Plot

Page will automatically refresh every two minutes.

Flight plan parsing failed; only flown route is shown


Map Options




Map Legend


Flown Route
Filed Route
Departure Airport
Arrival Airport
Navaid (VOR, NDB)
Fix

Horizontal Profiles

Position Reports

Time Latitude Longitude Heading Altitude Ground
Speed
06-Jan-18 11:03 37.637608 -122.388736 88 25ft 0kts
06-Jan-18 11:04 37.637608 -122.388736 88 25ft 0kts
06-Jan-18 11:05 37.637608 -122.388736 88 25ft 0kts
06-Jan-18 11:06 37.637608 -122.388736 88 25ft 0kts
06-Jan-18 11:07 37.637608 -122.388736 88 25ft 0kts
06-Jan-18 11:08 37.637608 -122.388736 88 25ft 0kts
06-Jan-18 11:09 37.637608 -122.388736 88 25ft 0kts
06-Jan-18 11:10 37.637608 -122.388736 88 25ft 0kts
06-Jan-18 11:11 37.637608 -122.388736 88 25ft 0kts
06-Jan-18 11:12 37.637608 -122.388736 88 25ft 0kts
06-Jan-18 11:13 37.637608 -122.388736 88 25ft 0kts
06-Jan-18 11:14 37.637608 -122.388736 88 25ft 0kts
06-Jan-18 11:15 37.637608 -122.388736 88 25ft 0kts
06-Jan-18 11:16 37.637608 -122.388736 88 25ft 0kts
06-Jan-18 11:17 37.637608 -122.388736 88 25ft 0kts
06-Jan-18 11:18 37.637608 -122.388736 88 25ft 0kts
06-Jan-18 11:19 37.637608 -122.388736 88 25ft 0kts
06-Jan-18 11:20 37.637608 -122.388736 88 25ft 0kts
06-Jan-18 11:21 37.637608 -122.388736 88 25ft 0kts
06-Jan-18 11:22 37.637608 -122.388736 88 25ft 0kts
06-Jan-18 11:23 37.637608 -122.388736 88 25ft 0kts
06-Jan-18 11:24 37.637608 -122.388736 88 25ft 0kts
06-Jan-18 11:25 37.637608 -122.388736 88 25ft 0kts
06-Jan-18 11:26 37.637608 -122.388736 88 25ft 0kts
06-Jan-18 11:27 37.637608 -122.388736 88 25ft 0kts
06-Jan-18 11:28 37.637608 -122.388736 88 25ft 0kts
06-Jan-18 11:29 37.637608 -122.388736 88 25ft 0kts
06-Jan-18 11:30 37.637608 -122.388736 88 25ft 0kts
06-Jan-18 11:31 37.637608 -122.388736 88 25ft 0kts
06-Jan-18 11:32 37.637608 -122.388736 88 25ft 0kts
06-Jan-18 11:33 37.637608 -122.388736 88 25ft 0kts
06-Jan-18 11:34 37.637608 -122.388736 88 25ft 0kts
06-Jan-18 11:35 37.637608 -122.388736 88 25ft 0kts
06-Jan-18 11:36 37.637608 -122.388736 88 25ft 0kts
06-Jan-18 11:37 37.637608 -122.388736 88 25ft 0kts
06-Jan-18 11:38 37.637608 -122.388736 88 25ft 0kts
06-Jan-18 11:39 37.637608 -122.388736 88 25ft 0kts
06-Jan-18 11:40 37.637608 -122.388736 88 25ft 0kts
06-Jan-18 11:41 37.637665 -122.389424 111 25ft 2kts
06-Jan-18 11:42 37.637814 -122.389763 127 25ft 0kts
06-Jan-18 11:43 37.637814 -122.389763 127 25ft 0kts
06-Jan-18 11:44 37.637814 -122.389763 127 25ft 0kts
06-Jan-18 11:45 37.637814 -122.389763 127 25ft 0kts
06-Jan-18 11:46 37.637814 -122.389763 127 25ft 0kts
06-Jan-18 11:47 37.637104 -122.389168 149 25ft 12kts
06-Jan-18 11:48 37.633940 -122.390733 245 25ft 17kts
06-Jan-18 11:49 37.630866 -122.392546 155 25ft 13kts
06-Jan-18 11:50 37.628195 -122.388435 118 25ft 17kts
06-Jan-18 11:51 37.626228 -122.383699 117 25ft 13kts
06-Jan-18 11:52 37.623261 -122.376622 117 25ft 23kts
06-Jan-18 11:53 37.622525 -122.374867 118 25ft 0kts
06-Jan-18 11:54 37.622525 -122.374867 118 25ft 0kts
06-Jan-18 11:55 37.619527 -122.367687 117 25ft 28kts
06-Jan-18 11:56 37.616517 -122.360482 117 25ft 19kts
06-Jan-18 11:57 37.614693 -122.356782 167 25ft 0kts
06-Jan-18 11:58 37.614596 -122.359610 297 25ft 56kts
06-Jan-18 11:59 37.638839 -122.394078 357 1475ft 173kts
06-Jan-18 12:00 37.673079 -122.334079 63 3418ft 273kts
06-Jan-18 12:01 37.706230 -122.245878 63 7920ft 288kts
06-Jan-18 12:02 37.764825 -122.170610 31 11038ft 343kts
06-Jan-18 12:03 37.853336 -122.091892 31 14027ft 408kts
06-Jan-18 12:04 37.935986 -121.987371 44 18685ft 432kts
06-Jan-18 12:05 38.014224 -121.869517 43 19315ft 439kts
06-Jan-18 12:06 38.093533 -121.751414 43 19301ft 439kts
06-Jan-18 12:07 38.173744 -121.633312 43 21237ft 450kts
06-Jan-18 12:08 38.256679 -121.509121 45 24701ft 476kts
06-Jan-18 12:09 38.345029 -121.376008 46 27277ft 509kts
06-Jan-18 12:10 38.435277 -121.229671 48 29472ft 536kts
06-Jan-18 12:11 38.529051 -121.076822 48 31549ft 549kts
06-Jan-18 12:12 38.624210 -120.922849 48 33546ft 555kts
06-Jan-18 12:13 38.719305 -120.767563 48 35689ft 552kts
06-Jan-18 12:14 38.813274 -120.613170 48 37713ft 544kts
06-Jan-18 12:15 38.905155 -120.461468 48 39620ft 533kts
06-Jan-18 12:16 38.994808 -120.312750 48 41233ft 524kts
06-Jan-18 12:17 39.083831 -120.164376 48 41272ft 521kts
06-Jan-18 12:18 39.171887 -120.016943 48 41271ft 519kts
06-Jan-18 12:19 39.259984 -119.868756 49 41261ft 520kts
06-Jan-18 12:20 39.347554 -119.720769 49 41246ft 518kts
06-Jan-18 12:21 39.434712 -119.572793 49 41238ft 518kts
06-Jan-18 12:22 39.521989 -119.423924 49 41233ft 518kts
06-Jan-18 12:23 39.608848 -119.275070 49 41235ft 518kts
06-Jan-18 12:24 39.695984 -119.125163 49 41238ft 519kts
06-Jan-18 12:25 39.782835 -118.975258 49 41239ft 520kts
06-Jan-18 12:26 39.869403 -118.824347 50 41240ft 521kts
06-Jan-18 12:27 39.941403 -118.659210 60 41240ft 525kts
06-Jan-18 12:28 40.009073 -118.490344 59 41242ft 525kts
06-Jan-18 12:29 40.077368 -118.323111 59 41239ft 522kts
06-Jan-18 12:30 40.145087 -118.154402 59 41239ft 524kts
06-Jan-18 12:31 40.208520 -117.983032 68 41239ft 526kts
06-Jan-18 12:32 40.250952 -117.799068 71 41235ft 528kts
06-Jan-18 12:33 40.292844 -117.615107 71 41232ft 528kts
06-Jan-18 12:34 40.335802 -117.430881 71 41231ft 527kts
06-Jan-18 12:35 40.377886 -117.246829 71 41230ft 528kts
06-Jan-18 12:36 40.419688 -117.062096 71 41230ft 529kts
06-Jan-18 12:37 40.461373 -116.876318 72 41229ft 530kts
06-Jan-18 12:38 40.503126 -116.690482 72 41230ft 532kts
06-Jan-18 12:39 40.544074 -116.503519 72 41229ft 534kts
06-Jan-18 12:40 40.574935 -116.312244 83 41227ft 536kts
06-Jan-18 12:41 40.588261 -116.116812 84 41224ft 538kts
06-Jan-18 12:42 40.602612 -115.920461 83 41222ft 538kts
06-Jan-18 12:43 40.617608 -115.724499 84 41220ft 539kts
06-Jan-18 12:44 40.631723 -115.528379 84 41220ft 539kts
06-Jan-18 12:45 40.645502 -115.331592 84 41221ft 539kts
06-Jan-18 12:46 40.658899 -115.135419 84 41221ft 538kts
06-Jan-18 12:47 40.672011 -114.938470 84 41221ft 539kts
06-Jan-18 12:48 40.685089 -114.741852 84 41214ft 539kts
06-Jan-18 12:49 40.697291 -114.544071 85 39274ft 550kts
06-Jan-18 12:50 40.704823 -114.374664 87 37542ft 559kts
06-Jan-18 12:51 40.713530 -114.133385 87 34944ft 572kts
06-Jan-18 12:52 40.719780 -113.957130 89 32749ft 575kts
06-Jan-18 12:53 40.726292 -113.751272 90 29866ft 551kts
06-Jan-18 12:54 40.725591 -113.521452 92 26538ft 524kts
06-Jan-18 12:55 40.724876 -113.364775 92 24356ft 503kts
06-Jan-18 12:56 40.725010 -113.184581 92 21798ft 478kts
06-Jan-18 12:57 40.723858 -113.013965 92 19320ft 454kts
06-Jan-18 12:58 40.722571 -112.851667 91 17335ft 425kts
06-Jan-18 12:59 40.721414 -112.698204 92 17016ft 416kts
06-Jan-18 13:00 40.719760 -112.545912 92 17006ft 416kts
06-Jan-18 13:01 40.723447 -112.396979 82 15460ft 395kts
06-Jan-18 13:02 40.742297 -112.257184 80 13585ft 381kts
06-Jan-18 13:03 40.755122 -112.121393 103 11687ft 363kts
06-Jan-18 13:04 40.691674 -112.042538 168 11011ft 291kts
06-Jan-18 13:05 40.622475 -112.039322 191 10999ft 234kts
06-Jan-18 13:06 40.558212 -112.050881 191 10999ft 232kts
06-Jan-18 13:07 40.495860 -112.045470 141 10767ft 242kts
06-Jan-18 13:08 40.489289 -111.959049 65 9402ft 253kts
06-Jan-18 13:09 40.550622 -111.941486 349 8589ft 231kts
06-Jan-18 13:10 40.608006 -111.953616 352 7443ft 178kts
06-Jan-18 13:11 40.653811 -111.959057 354 6596ft 159kts
06-Jan-18 13:12 40.697292 -111.964090 354 5736ft 154kts
06-Jan-18 13:13 40.740312 -111.968701 352 4943ft 148kts
06-Jan-18 13:14 40.779076 -111.973578 354 4242ft 133kts
06-Jan-18 13:15 40.793443 -111.975276 352 4240ft 23kts
06-Jan-18 13:16 40.797022 -111.977915 358 4240ft 19kts
06-Jan-18 13:17 40.804777 -111.978758 354 4240ft 27kts
06-Jan-18 13:18 40.805604 -111.982064 162 4240ft 0kts
06-Jan-18 13:19 40.805604 -111.982064 162 4240ft 0kts
06-Jan-18 13:20 40.805604 -111.982064 162 4240ft 0kts

Navigation Log

Ident Type
Flight plan parsing failed, navigation log unavailable